createdAt,value
2023-05-15T00:00:40.873Z,78.85
2023-05-15T00:01:42.143Z,78.83
2023-05-15T00:02:39.453Z,78.74
2023-05-15T00:03:40.002Z,78.80
2023-05-15T00:04:39.553Z,78.77
2023-05-15T00:05:40.151Z,78.70
2023-05-15T00:06:39.582Z,78.85
2023-05-15T00:07:39.662Z,78.93
2023-05-15T00:08:39.969Z,78.96
2023-05-15T00:09:40.405Z,79.03
2023-05-15T00:10:42.793Z,79.11
2023-05-15T00:11:39.597Z,79.19
2023-05-15T00:12:39.539Z,79.33
2023-05-15T00:13:39.558Z,79.35
2023-05-15T00:14:39.698Z,79.40
2023-05-15T00:15:40.418Z,79.49
2023-05-15T00:16:40.272Z,79.67
2023-05-15T00:17:39.733Z,79.67
2023-05-15T00:18:39.768Z,79.67
2023-05-15T00:19:39.803Z,79.87
2023-05-15T00:20:39.967Z,79.95
2023-05-15T00:21:39.879Z,80.06
2023-05-15T00:22:39.652Z,80.09
2023-05-15T00:23:39.693Z,80.20
2023-05-15T00:24:39.962Z,80.37
2023-05-15T00:25:39.505Z,80.47
2023-05-15T00:26:39.430Z,80.52
2023-05-15T00:27:39.260Z,80.62
2023-05-15T00:28:39.098Z,80.61
2023-05-15T00:29:39.622Z,80.63
2023-05-15T00:30:39.947Z,80.66
2023-05-15T00:31:40.105Z,80.71
2023-05-15T00:32:39.619Z,80.76
2023-05-15T00:33:39.530Z,80.80
2023-05-15T00:34:39.680Z,80.83
2023-05-15T00:35:40.486Z,80.89
2023-05-15T00:36:39.651Z,80.97
2023-05-15T00:37:39.515Z,80.98
2023-05-15T00:38:39.502Z,81.10
2023-05-15T00:39:39.743Z,81.31
2023-05-15T00:40:39.640Z,81.27
2023-05-15T00:41:39.697Z,81.24
2023-05-15T00:42:39.414Z,81.33
2023-05-15T00:43:39.569Z,81.42
2023-05-15T00:44:39.748Z,81.41
2023-05-15T00:45:40.710Z,81.49
2023-05-15T00:46:39.884Z,81.47
2023-05-15T00:47:40.118Z,81.58
2023-05-15T00:48:39.610Z,81.58
2023-05-15T00:49:39.829Z,81.70
2023-05-15T00:50:39.951Z,81.73
2023-05-15T00:51:39.786Z,81.74
2023-05-15T00:52:39.806Z,81.84
2023-05-15T00:53:40.153Z,81.88
2023-05-15T00:54:39.743Z,81.80
2023-05-15T00:55:40.500Z,81.79
2023-05-15T00:56:39.313Z,81.79
2023-05-15T00:57:39.759Z,81.89
2023-05-15T00:58:39.850Z,81.88
2023-05-15T00:59:40.284Z,81.94
2023-05-15T01:00:40.975Z,82.18
2023-05-15T01:01:39.948Z,82.36
2023-05-15T01:02:40.399Z,82.43
2023-05-15T01:03:39.990Z,82.58
2023-05-15T01:04:39.431Z,82.67
2023-05-15T01:05:39.845Z,82.80
2023-05-15T01:06:40.345Z,82.92
2023-05-15T01:07:39.342Z,83.05
2023-05-15T01:08:39.506Z,83.01
2023-05-15T01:09:39.934Z,83.05
2023-05-15T01:10:40.598Z,83.07
2023-05-15T01:11:39.652Z,83.22
2023-05-15T01:12:39.500Z,83.36
2023-05-15T01:13:39.301Z,83.39
2023-05-15T01:14:39.521Z,83.50
2023-05-15T01:15:44.915Z,83.63
2023-05-15T01:16:40.243Z,83.76
2023-05-15T01:17:39.788Z,83.79
2023-05-15T01:18:40.304Z,83.67
2023-05-15T01:19:40.174Z,83.77
2023-05-15T01:20:39.883Z,83.88
2023-05-15T01:21:40.172Z,83.92
2023-05-15T01:22:39.580Z,84.12
2023-05-15T01:23:44.793Z,84.21
2023-05-15T01:24:39.872Z,84.29
2023-05-15T01:25:40.663Z,84.23
2023-05-15T01:26:39.855Z,84.17
2023-05-15T01:27:39.788Z,84.19
2023-05-15T01:28:39.722Z,84.30
2023-05-15T01:29:39.964Z,84.33
2023-05-15T01:30:40.434Z,84.41
2023-05-15T01:31:40.091Z,84.41
2023-05-15T01:32:39.646Z,84.43
2023-05-15T01:33:39.929Z,84.57
2023-05-15T01:34:40.219Z,84.61
2023-05-15T01:35:40.103Z,84.52
2023-05-15T01:36:39.189Z,84.45
2023-05-15T01:37:39.208Z,84.51
2023-05-15T01:38:39.317Z,84.49
2023-05-15T01:39:39.562Z,84.70
2023-05-15T01:40:39.464Z,84.81
2023-05-15T01:41:39.605Z,84.79
2023-05-15T01:42:39.569Z,84.76
2023-05-15T01:43:39.362Z,84.75
2023-05-15T01:44:40.036Z,84.71
2023-05-15T01:45:40.198Z,84.84
2023-05-15T01:46:39.664Z,84.88
2023-05-15T01:47:39.898Z,84.89
2023-05-15T01:48:39.932Z,84.80
2023-05-15T01:49:40.222Z,84.98
2023-05-15T01:50:39.829Z,84.94
2023-05-15T01:51:40.293Z,85.04
2023-05-15T01:52:39.503Z,85.17
2023-05-15T01:53:39.618Z,85.20
2023-05-15T01:54:39.751Z,85.14
2023-05-15T01:55:40.006Z,85.18
2023-05-15T01:56:39.771Z,85.16
2023-05-15T01:57:39.939Z,85.03
2023-05-15T01:58:40.096Z,85.07
2023-05-15T01:59:39.538Z,85.12
2023-05-15T02:00:40.407Z,85.09
2023-05-15T02:01:39.778Z,85.03
2023-05-15T02:02:39.739Z,84.86
2023-05-15T02:03:39.865Z,84.88
2023-05-15T02:04:39.701Z,85.02
2023-05-15T02:05:40.494Z,85.14
2023-05-15T02:06:39.313Z,85.14
2023-05-15T02:07:39.643Z,85.12
2023-05-15T02:08:39.862Z,85.12
2023-05-15T02:09:40.108Z,85.13
2023-05-15T02:10:39.886Z,85.10
2023-05-15T02:11:39.744Z,85.15
2023-05-15T02:12:39.631Z,85.17
2023-05-15T02:13:39.449Z,85.18
2023-05-15T02:14:39.677Z,85.19
2023-05-15T02:15:40.349Z,85.17
2023-05-15T02:16:39.882Z,85.26
2023-05-15T02:17:40.108Z,85.25
2023-05-15T02:18:39.452Z,85.27
2023-05-15T02:19:39.610Z,85.34
2023-05-15T02:20:39.910Z,85.32
2023-05-15T02:21:39.854Z,85.41
2023-05-15T02:22:39.833Z,85.53
2023-05-15T02:23:39.995Z,85.42
2023-05-15T02:24:39.323Z,85.50
2023-05-15T02:25:40.272Z,85.45
2023-05-15T02:26:39.718Z,85.44
2023-05-15T02:27:39.916Z,85.46
2023-05-15T02:28:39.926Z,85.46
2023-05-15T02:29:40.091Z,85.53
2023-05-15T02:30:39.337Z,85.57
2023-05-15T02:31:40.202Z,85.70
2023-05-15T02:32:39.534Z,85.68
2023-05-15T02:33:39.586Z,85.71
2023-05-15T02:34:39.727Z,85.82
2023-05-15T02:35:40.119Z,85.83
2023-05-15T02:36:39.480Z,85.95
2023-05-15T02:37:39.551Z,86.02
2023-05-15T02:38:39.488Z,86.01
2023-05-15T02:39:40.130Z,86.03
2023-05-15T02:40:39.622Z,86.05
2023-05-15T02:41:39.399Z,86.14
2023-05-15T02:42:39.460Z,86.12
2023-05-15T02:43:39.638Z,86.13
2023-05-15T02:44:39.852Z,86.11
2023-05-15T02:45:40.529Z,86.19
2023-05-15T02:46:39.764Z,86.09
2023-05-15T02:47:39.997Z,86.24
2023-05-15T02:48:39.819Z,86.25
2023-05-15T02:49:40.125Z,86.33
2023-05-15T02:50:39.919Z,86.31
2023-05-15T02:51:40.058Z,86.29
2023-05-15T02:52:39.383Z,86.25
2023-05-15T02:53:39.573Z,86.22
2023-05-15T02:54:39.712Z,86.27
2023-05-15T02:55:40.150Z,86.39
2023-05-15T02:56:39.879Z,86.40
2023-05-15T02:57:39.824Z,86.37
2023-05-15T02:58:39.744Z,86.44
2023-05-15T02:59:39.904Z,86.50
2023-05-15T03:00:41.123Z,86.52
2023-05-15T03:01:39.644Z,86.55
2023-05-15T03:02:39.996Z,86.70
2023-05-15T03:03:39.556Z,86.72
2023-05-15T03:04:40.019Z,86.68
2023-05-15T03:05:39.805Z,86.79
2023-05-15T03:06:39.970Z,86.88
2023-05-15T03:07:40.042Z,87.06
2023-05-15T03:08:39.319Z,87.10
2023-05-15T03:09:39.583Z,87.02
2023-05-15T03:10:39.823Z,87.17
2023-05-15T03:11:39.534Z,87.28
2023-05-15T03:12:39.265Z,87.19
2023-05-15T03:13:39.311Z,87.30
2023-05-15T03:14:39.343Z,87.23
2023-05-15T03:15:40.036Z,87.13
2023-05-15T03:16:39.606Z,87.25
2023-05-15T03:17:39.800Z,87.28
2023-05-15T03:18:39.930Z,87.41
2023-05-15T03:19:40.366Z,87.41
2023-05-15T03:20:39.946Z,87.52
2023-05-15T03:21:40.121Z,87.55
2023-05-15T03:22:39.336Z,87.53
2023-05-15T03:23:39.473Z,87.62
2023-05-15T03:24:39.823Z,87.55
2023-05-15T03:25:40.752Z,87.49
2023-05-15T03:26:39.719Z,87.51
2023-05-15T03:27:40.013Z,87.50
2023-05-15T03:28:40.565Z,87.56
2023-05-15T03:29:39.139Z,87.56
2023-05-15T03:30:39.761Z,87.62
2023-05-15T03:31:40.080Z,87.59
2023-05-15T03:32:39.329Z,87.46
2023-05-15T03:33:39.611Z,87.54
2023-05-15T03:34:41.024Z,87.57
2023-05-15T03:35:39.896Z,87.42
2023-05-15T03:36:39.869Z,87.42
2023-05-15T03:37:39.599Z,87.50
2023-05-15T03:38:39.876Z,87.45
2023-05-15T03:39:39.930Z,87.30
2023-05-15T03:40:40.411Z,87.42
2023-05-15T03:41:39.652Z,87.40
2023-05-15T03:42:39.950Z,87.42
2023-05-15T03:43:40.150Z,87.40
2023-05-15T03:44:44.821Z,87.42
2023-05-15T03:45:40.604Z,87.53
2023-05-15T03:46:45.508Z,87.56
2023-05-15T03:47:40.325Z,87.55
2023-05-15T03:48:45.000Z,87.55
2023-05-15T03:49:39.503Z,87.58
2023-05-15T03:50:39.983Z,87.60
2023-05-15T03:51:39.658Z,87.60
2023-05-15T03:52:42.123Z,87.55
2023-05-15T03:53:39.780Z,87.47
2023-05-15T03:54:39.938Z,87.46
2023-05-15T03:55:40.994Z,87.49
2023-05-15T03:56:39.526Z,87.41
2023-05-15T03:57:39.919Z,87.45
2023-05-15T03:58:40.394Z,87.53
2023-05-15T03:59:39.932Z,87.43
2023-05-15T04:00:41.734Z,87.38
2023-05-15T04:01:54.785Z,87.35
2023-05-15T04:02:54.202Z,87.46
2023-05-15T04:03:39.929Z,87.41
2023-05-15T04:04:40.357Z,87.30
2023-05-15T04:05:40.442Z,87.29
2023-05-15T04:06:39.937Z,87.28
2023-05-15T04:07:39.871Z,87.31
2023-05-15T04:08:40.973Z,87.26
2023-05-15T04:09:40.045Z,87.13
2023-05-15T04:10:40.292Z,87.15
2023-05-15T04:11:39.935Z,87.20
2023-05-15T04:12:39.766Z,87.23
2023-05-15T04:13:39.972Z,87.21
2023-05-15T04:14:39.501Z,87.25
2023-05-15T04:15:40.685Z,87.34
2023-05-15T04:16:40.265Z,87.26
2023-05-15T04:17:39.788Z,87.19
2023-05-15T04:18:40.096Z,87.15
2023-05-15T04:19:41.003Z,87.19
2023-05-15T04:20:39.990Z,87.12
2023-05-15T04:21:39.645Z,87.09
2023-05-15T04:22:39.998Z,86.98
2023-05-15T04:23:39.202Z,87.00
2023-05-15T04:24:39.481Z,86.94
2023-05-15T04:25:40.914Z,86.87
2023-05-15T04:26:40.433Z,86.82
2023-05-15T04:27:39.991Z,86.80
2023-05-15T04:28:41.478Z,86.81
2023-05-15T04:29:40.083Z,86.84
2023-05-15T04:31:01.952Z,86.86
2023-05-15T04:31:39.999Z,86.80
2023-05-15T04:32:39.764Z,86.81
2023-05-15T04:33:39.934Z,86.76
2023-05-15T04:34:40.215Z,86.75
2023-05-15T04:35:40.192Z,86.75
2023-05-15T04:36:40.808Z,86.76
2023-05-15T04:37:40.104Z,86.80
2023-05-15T04:38:39.813Z,86.90
2023-05-15T04:39:40.335Z,86.91
2023-05-15T04:40:39.889Z,86.90
2023-05-15T04:41:40.261Z,86.92
2023-05-15T04:42:39.957Z,86.73
2023-05-15T04:43:41.230Z,86.59
2023-05-15T04:44:40.164Z,86.62
2023-05-15T04:45:40.761Z,86.59
2023-05-15T04:46:40.505Z,86.73
2023-05-15T04:47:39.998Z,86.71
2023-05-15T04:48:39.433Z,86.66
2023-05-15T04:49:39.896Z,86.56
2023-05-15T04:50:41.047Z,86.44
2023-05-15T04:51:39.573Z,86.50
2023-05-15T04:52:40.008Z,86.58
2023-05-15T04:53:39.359Z,86.48
2023-05-15T04:54:39.968Z,86.41
2023-05-15T04:55:41.250Z,86.37
2023-05-15T04:56:39.958Z,86.41
2023-05-15T04:57:40.855Z,86.43
2023-05-15T04:58:41.074Z,86.47
2023-05-15T04:59:40.726Z,86.50
2023-05-15T05:01:13.566Z,86.51
2023-05-15T05:01:46.420Z,86.53
2023-05-15T05:02:40.109Z,86.48
2023-05-15T05:03:40.303Z,86.53
2023-05-15T05:04:40.552Z,86.52
2023-05-15T05:05:40.416Z,86.60
2023-05-15T05:06:39.835Z,86.51
2023-05-15T05:07:40.366Z,86.62
2023-05-15T05:08:39.774Z,86.69
2023-05-15T05:09:40.319Z,86.77
2023-05-15T05:10:39.581Z,86.73
2023-05-15T05:11:39.993Z,86.77
2023-05-15T05:12:42.976Z,86.83
2023-05-15T05:13:39.470Z,86.74
2023-05-15T05:14:39.742Z,86.87
2023-05-15T05:15:40.967Z,86.84
2023-05-15T05:16:40.302Z,86.79
2023-05-15T05:17:40.219Z,86.69
2023-05-15T05:18:39.838Z,86.59
2023-05-15T05:19:40.294Z,86.57
2023-05-15T05:20:40.155Z,86.61
2023-05-15T05:21:39.819Z,86.66
2023-05-15T05:22:40.437Z,86.5
2023-05-15T05:23:40.161Z,86.39
2023-05-15T05:24:40.070Z,86.32
2023-05-15T05:25:40.641Z,86.17
2023-05-15T05:26:40.257Z,86.05
2023-05-15T05:27:39.865Z,85.92
2023-05-15T05:28:40.451Z,85.73
2023-05-15T05:29:40.166Z,85.64
2023-05-15T05:30:40.696Z,85.66
2023-05-15T05:31:40.513Z,85.66
2023-05-15T05:32:40.123Z,85.60
2023-05-15T05:33:39.853Z,85.60
2023-05-15T05:34:40.507Z,85.60
2023-05-15T05:35:40.649Z,85.59
2023-05-15T05:36:40.164Z,85.54
2023-05-15T05:37:41.228Z,85.49
2023-05-15T05:38:39.994Z,85.48
2023-05-15T05:39:39.737Z,85.58
2023-05-15T05:40:40.407Z,85.58
2023-05-15T05:41:39.744Z,85.65
2023-05-15T05:42:40.127Z,85.71
2023-05-15T05:43:39.762Z,85.77
2023-05-15T05:44:40.416Z,85.70
2023-05-15T05:45:40.998Z,85.70
2023-05-15T05:46:40.070Z,85.66
2023-05-15T05:47:39.917Z,85.71
2023-05-15T05:48:40.387Z,85.77
2023-05-15T05:49:40.144Z,85.86
2023-05-15T05:50:40.054Z,85.96
2023-05-15T05:51:40.012Z,86
2023-05-15T05:52:39.779Z,85.96
2023-05-15T05:53:40.471Z,86
2023-05-15T05:54:40.118Z,86.10
2023-05-15T05:55:40.414Z,86.12
2023-05-15T05:56:40.019Z,86.14
2023-05-15T05:57:39.829Z,86.11
2023-05-15T05:58:42.099Z,86.21
2023-05-15T05:59:39.946Z,86.24
2023-05-15T06:00:41.228Z,86.33
2023-05-15T06:01:40.288Z,86.39
2023-05-15T06:02:40.758Z,86.26
2023-05-15T06:03:40.819Z,86.25
2023-05-15T06:04:40.362Z,86.27
2023-05-15T06:05:40.683Z,86.23
2023-05-15T06:06:40.106Z,86.15
2023-05-15T06:07:39.384Z,86.01
2023-05-15T06:08:40.119Z,85.99
2023-05-15T06:09:39.627Z,86.02
2023-05-15T06:10:41.035Z,85.98
2023-05-15T06:11:41.513Z,85.96
2023-05-15T06:12:39.765Z,85.99
2023-05-15T06:13:40.119Z,86
2023-05-15T06:14:39.996Z,86.10
2023-05-15T06:15:40.365Z,86.05
2023-05-15T06:16:39.869Z,85.91
2023-05-15T06:17:40.484Z,85.97
2023-05-15T06:18:40.083Z,85.97
2023-05-15T06:19:47.477Z,85.92
2023-05-15T06:20:40.710Z,85.93
2023-05-15T06:21:40.046Z,85.90
2023-05-15T06:22:39.729Z,85.85
2023-05-15T06:23:40.325Z,85.88
2023-05-15T06:24:40.342Z,85.94
2023-05-15T06:25:40.421Z,85.93
2023-05-15T06:26:40.486Z,85.94
2023-05-15T06:27:40.128Z,85.84
2023-05-15T06:28:39.851Z,85.69
2023-05-15T06:29:40.427Z,85.56
2023-05-15T06:30:40.807Z,85.38
2023-05-15T06:31:54.685Z,85.45
2023-05-15T06:32:40.416Z,85.42
2023-05-15T06:33:53.969Z,85.13
2023-05-15T06:34:39.940Z,85.02
2023-05-15T06:35:40.233Z,84.89
2023-05-15T06:36:40.118Z,84.91
2023-05-15T06:37:39.616Z,84.93
2023-05-15T06:38:40.424Z,84.98
2023-05-15T06:39:39.998Z,85.19
2023-05-15T06:40:40.174Z,85.14
2023-05-15T06:41:39.809Z,85.02
2023-05-15T06:42:40.231Z,84.92
2023-05-15T06:43:44.849Z,84.96
2023-05-15T06:44:41.312Z,84.76
2023-05-15T06:45:59.198Z,84.64
2023-05-15T06:46:39.977Z,84.55
2023-05-15T06:47:40.114Z,84.37
2023-05-15T06:48:40.264Z,84.32
2023-05-15T06:49:40.158Z,84.36
2023-05-15T06:50:40.028Z,84.41
2023-05-15T06:51:40.040Z,84.57
2023-05-15T06:52:40.071Z,84.59
2023-05-15T06:53:39.960Z,84.57
2023-05-15T06:54:40.639Z,84.54
2023-05-15T06:55:40.997Z,84.60
2023-05-15T06:56:39.817Z,84.78
2023-05-15T06:57:40.759Z,84.75
2023-05-15T06:58:40.389Z,84.59
2023-05-15T06:59:40.170Z,84.40
2023-05-15T07:00:41.127Z,84.47
2023-05-15T07:01:40.030Z,84.60
2023-05-15T07:02:39.950Z,84.66
2023-05-15T07:03:40.006Z,84.65
2023-05-15T07:04:39.876Z,84.62
2023-05-15T07:05:55.042Z,84.54
2023-05-15T07:06:39.714Z,84.52
2023-05-15T07:07:40.493Z,84.43
2023-05-15T07:08:40.050Z,84.47
2023-05-15T07:09:39.857Z,84.47
2023-05-15T07:10:40.759Z,84.35
2023-05-15T07:11:40.553Z,84.33
2023-05-15T07:12:40.364Z,84.15
2023-05-15T07:13:39.886Z,83.97
2023-05-15T07:14:40.841Z,84.08
2023-05-15T07:15:40.394Z,83.88
2023-05-15T07:16:39.852Z,83.91
2023-05-15T07:17:59.713Z,83.93
2023-05-15T07:18:40.708Z,83.90
2023-05-15T07:19:40.358Z,83.97
2023-05-15T07:20:44.828Z,83.94
2023-05-15T07:21:40.645Z,84.07
2023-05-15T07:22:52.052Z,84.11
2023-05-15T07:23:40.106Z,84.04
2023-05-15T07:24:40.578Z,83.95
2023-05-15T07:25:41.636Z,83.87
2023-05-15T07:26:58.500Z,83.81
2023-05-15T07:27:39.956Z,83.5
2023-05-15T07:28:40.662Z,83.58
2023-05-15T07:29:40.247Z,83.67
2023-05-15T07:30:40.834Z,83.68
2023-05-15T07:32:02.903Z,83.61
2023-05-15T07:32:40.578Z,83.57
2023-05-15T07:33:39.957Z,83.68
2023-05-15T07:34:40.930Z,83.54
2023-05-15T07:36:03.122Z,83.51
2023-05-15T07:36:40.239Z,83.48
2023-05-15T07:37:39.758Z,83.50
2023-05-15T07:38:41.321Z,83.56
2023-05-15T07:39:40.075Z,83.54
2023-05-15T07:40:40.028Z,83.46
2023-05-15T07:41:39.431Z,83.52
2023-05-15T07:42:39.936Z,83.51
2023-05-15T07:43:40.292Z,83.37
2023-05-15T07:44:41.362Z,83.29
2023-05-15T07:45:41.200Z,83.13
2023-05-15T07:46:40.759Z,83.09
2023-05-15T07:47:40.552Z,83.01
2023-05-15T07:48:39.996Z,82.71
2023-05-15T07:49:40.122Z,82.41
2023-05-15T07:50:40.105Z,82.34
2023-05-15T07:51:40.167Z,82.39
2023-05-15T07:52:39.880Z,82.36
2023-05-15T07:53:40.206Z,82.12
2023-05-15T07:54:39.973Z,81.83
2023-05-15T07:55:40.837Z,81.58
2023-05-15T07:56:40.761Z,80.83
2023-05-15T07:57:40.947Z,80.55
2023-05-15T07:58:40.350Z,80.61
2023-05-15T07:59:40.309Z,80.36
2023-05-15T08:00:40.765Z,79.81
2023-05-15T08:01:40.599Z,79.55
2023-05-15T08:02:40.273Z,79.5
2023-05-15T08:03:40.089Z,79.64
2023-05-15T08:04:40.289Z,79.45
2023-05-15T08:05:41.007Z,79.24
2023-05-15T08:06:40.008Z,79.23
2023-05-15T08:07:40.102Z,79.16
2023-05-15T08:08:39.710Z,79.10
2023-05-15T08:09:40.802Z,79.02
2023-05-15T08:10:40.395Z,78.76
2023-05-15T08:11:40.217Z,78.54
2023-05-15T08:12:39.945Z,78.67
2023-05-15T08:13:40.453Z,78.63
2023-05-15T08:14:40.528Z,78.62
2023-05-15T08:15:41.157Z,78.58
2023-05-15T08:16:40.212Z,78.34
2023-05-15T08:17:39.977Z,78.23
2023-05-15T08:18:39.650Z,77.86
2023-05-15T08:20:26.167Z,77.98
2023-05-15T08:20:44.976Z,78.12
2023-05-15T08:21:39.669Z,78.26
2023-05-15T08:22:40.075Z,78.37
2023-05-15T08:23:39.658Z,78.55
2023-05-15T08:24:40.212Z,78.67
2023-05-15T08:25:40.353Z,78.65
2023-05-15T08:26:40.090Z,78.44
2023-05-15T08:27:39.544Z,77.99
2023-05-15T08:28:40.069Z,78.17
2023-05-15T08:29:40.034Z,78.16
2023-05-15T08:30:45.150Z,78.05
2023-05-15T08:31:40.040Z,78.01
2023-05-15T08:32:39.850Z,77.98
2023-05-15T08:33:40.579Z,77.54
2023-05-15T08:34:40.258Z,77.63
2023-05-15T08:35:40.884Z,77.73
2023-05-15T08:36:45.931Z,77.29
2023-05-15T08:37:40.904Z,77.11
2023-05-15T08:38:41.114Z,77.22
2023-05-15T08:39:40.241Z,77.21
2023-05-15T08:40:55.118Z,77.17
2023-05-15T08:41:55.378Z,77.20
2023-05-15T08:42:39.682Z,77.21
2023-05-15T08:43:40.508Z,76.82
2023-05-15T08:44:40.386Z,76.73
2023-05-15T08:45:40.825Z,76.85
2023-05-15T08:46:40.692Z,77.05
2023-05-15T08:47:40.354Z,77.07
2023-05-15T08:48:40.494Z,77.18
2023-05-15T08:49:41.897Z,77.24
2023-05-15T08:50:40.159Z,77.10
2023-05-15T08:51:40.180Z,76.91
2023-05-15T08:52:40.030Z,76.94
2023-05-15T08:53:39.970Z,76.55
2023-05-15T08:54:40.000Z,76.30
2023-05-15T08:55:41.087Z,76.43
2023-05-15T08:56:40.309Z,76.34
2023-05-15T08:57:40.066Z,76.22
2023-05-15T08:58:40.079Z,75.95
2023-05-15T08:59:40.204Z,75.66
2023-05-15T09:00:40.695Z,75.48
2023-05-15T09:01:40.609Z,74.62
2023-05-15T09:02:40.332Z,74.32
2023-05-15T09:03:40.448Z,74.15
2023-05-15T09:04:40.056Z,73.98
2023-05-15T09:05:40.285Z,73.93
2023-05-15T09:06:39.947Z,73.88
2023-05-15T09:07:40.398Z,74.43
2023-05-15T09:08:39.843Z,74.55
2023-05-15T09:09:40.715Z,74.58
2023-05-15T09:10:40.371Z,74.24
2023-05-15T09:11:40.055Z,74.26
2023-05-15T09:12:39.805Z,74.22
2023-05-15T09:13:40.043Z,74.34
2023-05-15T09:14:39.891Z,73.98
2023-05-15T09:15:41.424Z,73.91
2023-05-15T09:16:40.783Z,73.84
2023-05-15T09:17:40.828Z,73.85
2023-05-15T09:18:40.385Z,73.95
2023-05-15T09:19:40.137Z,74.07
2023-05-15T09:20:48.085Z,73.97
2023-05-15T09:21:39.549Z,73.59
2023-05-15T09:23:02.940Z,72.85
2023-05-15T09:23:40.210Z,72.80
2023-05-15T09:24:48.328Z,72.91
2023-05-15T09:25:40.915Z,72.74
2023-05-15T09:26:40.255Z,72.85
2023-05-15T09:27:40.008Z,72.98
2023-05-15T09:28:39.729Z,73.19
2023-05-15T09:29:40.550Z,73.50
2023-05-15T09:30:40.551Z,73.41
2023-05-15T09:31:40.192Z,72.69
2023-05-15T09:32:40.589Z,72.63
2023-05-15T09:33:40.583Z,72.94
2023-05-15T09:34:40.667Z,72.87
2023-05-15T09:35:44.224Z,72.87
2023-05-15T09:36:40.045Z,72.95
2023-05-15T09:37:39.860Z,73.08
2023-05-15T09:38:40.268Z,73.13
2023-05-15T09:39:40.054Z,73.01
2023-05-15T09:40:39.898Z,72.98
2023-05-15T09:41:40.069Z,73.04
2023-05-15T09:42:39.896Z,73.01
2023-05-15T09:43:40.310Z,72.97
2023-05-15T09:44:40.006Z,72.80
2023-05-15T09:45:40.679Z,72.71
2023-05-15T09:46:59.856Z,71.91
2023-05-15T09:47:40.813Z,71.69
2023-05-15T09:48:40.796Z,71.97
2023-05-15T09:49:40.510Z,72.36
2023-05-15T09:50:40.393Z,72.55
2023-05-15T09:51:40.188Z,72.47
2023-05-15T09:52:39.655Z,72.45
2023-05-15T09:53:40.571Z,72.48
2023-05-15T09:54:40.113Z,72.27
2023-05-15T09:55:40.941Z,72.25
2023-05-15T09:56:40.287Z,72.41
2023-05-15T09:57:40.137Z,72.32
2023-05-15T09:59:02.512Z,72.25
2023-05-15T09:59:40.283Z,72.30
2023-05-15T10:00:47.549Z,71.90
2023-05-15T10:01:40.448Z,71.56
2023-05-15T10:03:40.417Z,70.62
2023-05-15T10:04:40.042Z,70.85
2023-05-15T10:05:58.348Z,70.94
2023-05-15T10:06:41.969Z,71.36
2023-05-15T10:07:40.548Z,71.49
2023-05-15T10:08:40.149Z,71.70
2023-05-15T10:09:40.469Z,71.74
2023-05-15T10:10:40.822Z,71.80
2023-05-15T10:11:40.512Z,71.51
2023-05-15T10:12:40.372Z,71.43
2023-05-15T10:13:40.106Z,71.45
2023-05-15T10:14:40.109Z,71.11
2023-05-15T10:15:40.718Z,71.19
2023-05-15T10:17:12.337Z,71.21
2023-05-15T10:17:45.591Z,71.11
2023-05-15T10:18:40.582Z,71.29
2023-05-15T10:19:47.182Z,71.25
2023-05-15T10:21:40.096Z,71.35
2023-05-15T10:22:39.626Z,71.16
2023-05-15T10:23:40.044Z,70.76
2023-05-15T10:24:40.221Z,70.48
2023-05-15T10:25:40.060Z,70.43
2023-05-15T10:26:39.838Z,70.15
2023-05-15T10:27:40.327Z,70.31
2023-05-15T10:28:40.244Z,70.31
2023-05-15T10:29:40.284Z,70.55
2023-05-15T10:30:41.363Z,70.52
2023-05-15T10:31:40.542Z,70.58
2023-05-15T10:32:40.345Z,70.47
2023-05-15T10:33:39.952Z,70.39
2023-05-15T10:34:41.449Z,70.38
2023-05-15T10:35:40.345Z,70.26
2023-05-15T10:36:40.721Z,70.23
2023-05-15T10:37:40.135Z,70.46
2023-05-15T10:38:39.860Z,70.48
2023-05-15T10:39:40.514Z,70.21
2023-05-15T10:40:41.061Z,70.06
2023-05-15T10:41:39.818Z,70.16
2023-05-15T10:42:40.352Z,69.98
2023-05-15T10:43:40.096Z,70.11
2023-05-15T10:44:40.310Z,69.91
2023-05-15T10:45:40.650Z,69.70
2023-05-15T10:46:40.427Z,69.20
2023-05-15T10:47:40.488Z,69
2023-05-15T10:48:40.395Z,69.05
2023-05-15T10:49:40.374Z,68.70
2023-05-15T10:50:41.171Z,68.87
2023-05-15T10:51:40.187Z,69.10
2023-05-15T10:52:39.731Z,69.08
2023-05-15T10:53:40.416Z,68.63
2023-05-15T10:54:40.193Z,68.80
2023-05-15T10:55:40.625Z,69.31
2023-05-15T10:56:40.533Z,69.66
2023-05-15T10:57:45.358Z,69.63
2023-05-15T10:58:40.269Z,69.84
2023-05-15T10:59:45.467Z,69.73
2023-05-15T11:00:41.954Z,69.5
2023-05-15T11:01:45.884Z,69.37
2023-05-15T11:02:40.585Z,69.50
2023-05-15T11:03:49.368Z,69.76
2023-05-15T11:04:40.233Z,69.73
2023-05-15T11:05:40.374Z,69.83
2023-05-15T11:06:40.624Z,69.11
2023-05-15T11:07:40.940Z,68.51
2023-05-15T11:08:41.108Z,68.33
2023-05-15T11:09:43.958Z,68.43
2023-05-15T11:10:41.698Z,68.02
2023-05-15T11:11:40.843Z,68.34
2023-05-15T11:12:41.044Z,68.51
2023-05-15T11:13:40.023Z,68.08
2023-05-15T11:14:39.960Z,67.64
2023-05-15T11:15:48.678Z,67.58
2023-05-15T11:16:40.430Z,67.80
2023-05-15T11:17:40.038Z,68.24
2023-05-15T11:18:39.778Z,68.63
2023-05-15T11:19:40.315Z,68.76
2023-05-15T11:20:40.058Z,69.04
2023-05-15T11:21:39.852Z,69.11
2023-05-15T11:22:40.207Z,69.44
2023-05-15T11:23:39.849Z,69.20
2023-05-15T11:24:40.277Z,68.55
2023-05-15T11:25:40.407Z,68.29
2023-05-15T11:26:39.921Z,68.45
2023-05-15T11:27:40.914Z,68.55
2023-05-15T11:28:40.397Z,68.29
2023-05-15T11:29:40.545Z,68.08
2023-05-15T11:30:41.032Z,67.77
2023-05-15T11:31:40.715Z,67.06
2023-05-15T11:32:40.945Z,67.21
2023-05-15T11:33:59.407Z,66.73
2023-05-15T11:34:40.365Z,66.55
2023-05-15T11:35:40.560Z,66.36
2023-05-15T11:36:40.486Z,66.58
2023-05-15T11:37:40.089Z,66.16
2023-05-15T11:38:39.896Z,66.20
2023-05-15T11:39:40.466Z,66.45
2023-05-15T11:40:40.865Z,66.06
2023-05-15T11:41:40.671Z,65.67
2023-05-15T11:42:40.229Z,65.26
2023-05-15T11:43:40.107Z,65.30
2023-05-15T11:44:40.400Z,65.52
2023-05-15T11:45:45.946Z,65.48
2023-05-15T11:46:40.889Z,65.61
2023-05-15T11:47:40.629Z,65.82
2023-05-15T11:48:40.486Z,65.38
2023-05-15T11:49:40.520Z,65.07
2023-05-15T11:50:41.239Z,65.08
2023-05-15T11:51:40.385Z,64.69
2023-05-15T11:52:40.637Z,64.92
2023-05-15T11:53:40.668Z,65.00
2023-05-15T11:54:41.009Z,64.76
2023-05-15T11:55:40.062Z,64.29
2023-05-15T11:56:39.990Z,63.86
2023-05-15T11:57:54.314Z,63.47
2023-05-15T11:58:40.228Z,63.02
2023-05-15T11:59:40.145Z,62.86
2023-05-15T12:00:41.502Z,63.09
2023-05-15T12:02:13.020Z,62.59
2023-05-15T12:02:46.572Z,62.34
2023-05-15T12:03:40.463Z,62.83
2023-05-15T12:04:40.614Z,63.03
2023-05-15T12:05:47.126Z,62.59
2023-05-15T12:06:40.286Z,62.68
2023-05-15T12:07:40.046Z,63.06
2023-05-15T12:08:40.027Z,63.36
2023-05-15T12:09:40.096Z,62.54
2023-05-15T12:10:40.812Z,61.84
2023-05-15T12:11:41.237Z,61.70
2023-05-15T12:12:40.110Z,61.79
2023-05-15T12:13:40.142Z,61.61
2023-05-15T12:14:40.036Z,61.95
2023-05-15T12:15:40.086Z,61.91
2023-05-15T12:16:40.217Z,61.99
2023-05-15T12:17:40.067Z,62.28
2023-05-15T12:18:40.143Z,61.95
2023-05-15T12:19:40.444Z,60.65
2023-05-15T12:20:41.483Z,60.52
2023-05-15T12:21:40.951Z,60.38
2023-05-15T12:22:40.826Z,60.18
2023-05-15T12:23:40.567Z,60.55
2023-05-15T12:24:40.470Z,60.65
2023-05-15T12:25:40.840Z,60.86
2023-05-15T12:26:40.386Z,61.31
2023-05-15T12:27:40.242Z,61.71
2023-05-15T12:28:40.539Z,61.56
2023-05-15T12:29:40.350Z,61.34
2023-05-15T12:30:41.002Z,61.49
2023-05-15T12:32:40.120Z,61.47
2023-05-15T12:33:39.879Z,61.34
2023-05-15T12:34:40.591Z,61.20
2023-05-15T12:35:40.118Z,61.61
2023-05-15T12:36:40.195Z,62.01
2023-05-15T12:37:40.377Z,61.47
2023-05-15T12:38:40.444Z,60.90
2023-05-15T12:40:12.262Z,60.79
2023-05-15T12:40:45.137Z,60.93
2023-05-15T12:41:39.744Z,60.94
2023-05-15T12:42:40.379Z,60.43
2023-05-15T12:43:40.051Z,59.93
2023-05-15T12:44:40.148Z,60.01
2023-05-15T12:45:40.433Z,60.04
2023-05-15T12:46:40.582Z,60.22
2023-05-15T12:47:40.451Z,59.82
2023-05-15T12:48:40.640Z,59.95
2023-05-15T12:49:41.135Z,60.08
2023-05-15T12:50:41.306Z,60.04
2023-05-15T12:51:40.324Z,60.15
2023-05-15T12:52:40.162Z,60.02
2023-05-15T12:53:40.457Z,59.29
2023-05-15T12:54:40.227Z,58.47
2023-05-15T12:55:40.405Z,58.81
2023-05-15T12:56:40.521Z,59.03